createdAt,value
2019-04-26T00:01:52.170Z,9.23
2019-04-26T00:04:22.146Z,10.17
2019-04-26T00:06:51.550Z,9.40
2019-04-26T00:09:39.970Z,9.23
2019-04-26T00:12:27.232Z,9.53
2019-04-26T00:15:16.396Z,9.10
2019-04-26T00:17:52.102Z,9.60
2019-04-26T00:20:21.602Z,9.97
2019-04-26T00:22:51.036Z,8.97
2019-04-26T00:25:20.691Z,9.10
2019-04-26T00:27:50.278Z,8.77
2019-04-26T00:30:21.243Z,8.37
2019-04-26T00:32:51.006Z,8.87
2019-04-26T00:35:20.714Z,9.20
2019-04-26T00:37:50.236Z,8.83
2019-04-26T00:40:20.360Z,8.80
2019-04-26T00:42:50.732Z,9.17
2019-04-26T00:45:22.961Z,9.00
2019-04-26T00:47:52.736Z,8.80
2019-04-26T00:50:23.290Z,9.17
2019-04-26T00:52:53.677Z,9.10
2019-04-26T00:55:24.014Z,8.60
2019-04-26T00:57:54.107Z,8.10
2019-04-26T01:00:24.087Z,8.50
2019-04-26T01:02:56.209Z,8.87
2019-04-26T01:05:25.886Z,9.00
2019-04-26T01:07:56.940Z,8.80
2019-04-26T01:10:26.903Z,8.10
2019-04-26T01:12:56.290Z,8.70
2019-04-26T01:15:26.583Z,8.17
2019-04-26T01:17:56.242Z,8.07
2019-04-26T01:20:32.898Z,8.50
2019-04-26T01:23:04.814Z,7.87
2019-04-26T01:25:40.827Z,8.57
2019-04-26T01:28:13.912Z,8.70
2019-04-26T01:30:45.183Z,7.93
2019-04-26T01:33:14.908Z,8.73
2019-04-26T01:35:44.724Z,8.60
2019-04-26T01:38:17.339Z,7.77
2019-04-26T01:40:49.717Z,8.33
2019-04-26T01:43:37.300Z,8.07
2019-04-26T01:46:12.551Z,8.97
2019-04-26T01:48:50.382Z,9.20
2019-04-26T01:51:26.569Z,9.43
2019-04-26T01:53:56.524Z,10.00
2019-04-26T01:56:31.402Z,8.93
2019-04-26T01:59:01.103Z,8.97
2019-04-26T02:01:42.282Z,8.67
2019-04-26T02:04:12.256Z,9.17
2019-04-26T02:06:41.835Z,8.73
2019-04-26T02:09:11.606Z,9.97
2019-04-26T02:11:41.305Z,10.27
2019-04-26T02:14:10.731Z,10.03
2019-04-26T02:16:40.499Z,10.87
2019-04-26T02:19:09.831Z,10.27
2019-04-26T02:21:45.393Z,9.77
2019-04-26T02:24:34.389Z,9.73
2019-04-26T02:27:07.109Z,9.87
2019-04-26T02:29:36.414Z,10.27
2019-04-26T02:32:08.277Z,10.70
2019-04-26T02:34:38.558Z,11.13
2019-04-26T02:37:10.942Z,11.50
2019-04-26T02:39:41.636Z,10.60
2019-04-26T02:42:21.518Z,10.97
2019-04-26T02:45:07.209Z,10.43
2019-04-26T02:47:57.293Z,11.27
2019-04-26T02:50:36.959Z,10.90
2019-04-26T02:53:33.558Z,11.40
2019-04-26T02:56:40.168Z,11.13
2019-04-26T02:59:32.351Z,12.20
2019-04-26T03:02:05.544Z,13.90
2019-04-26T03:04:39.475Z,13.93
2019-04-26T03:07:20.352Z,11.87
2019-04-26T03:09:51.892Z,10.73
2019-04-26T03:12:24.803Z,10.90
2019-04-26T03:15:18.411Z,11.97
2019-04-26T03:18:17.252Z,12.90
2019-04-26T03:20:50.149Z,12.80
2019-04-26T03:23:41.352Z,14.10
2019-04-26T03:26:52.540Z,12.67
2019-04-26T03:29:33.490Z,14.03
2019-04-26T03:32:16.641Z,13.97
2019-04-26T03:34:57.913Z,13.77
2019-04-26T03:38:05.601Z,14.27
2019-04-26T03:40:52.275Z,13.37
2019-04-26T03:43:44.957Z,13.70
2019-04-26T03:46:37.738Z,13.27
2019-04-26T03:49:54.526Z,13.30
2019-04-26T03:53:11.482Z,12.87
2019-04-26T03:56:27.656Z,12.83
2019-04-26T03:59:29.667Z,11.30
2019-04-26T04:02:22.507Z,13.30
2019-04-26T04:05:04.340Z,12.93
2019-04-26T04:07:43.634Z,13.17
2019-04-26T04:10:15.487Z,12.93
2019-04-26T04:12:56.292Z,12.07
2019-04-26T04:15:33.276Z,12.17
2019-04-26T04:18:10.375Z,11.47
2019-04-26T04:21:04.127Z,10.77
2019-04-26T04:23:52.925Z,11.43
2019-04-26T04:26:46.810Z,11.13
2019-04-26T04:29:56.320Z,10.87
2019-04-26T04:33:05.782Z,11.73
2019-04-26T04:35:40.469Z,11.27
2019-04-26T04:38:19.915Z,12.47
2019-04-26T04:41:30.743Z,13.20
2019-04-26T04:44:19.839Z,13.20
2019-04-26T04:47:25.840Z,12.60
2019-04-26T04:50:40.932Z,12.40
2019-04-26T04:53:49.711Z,13.50
2019-04-26T04:56:51.948Z,12.30
2019-04-26T04:59:37.093Z,12.50
2019-04-26T05:02:32.537Z,12.27
2019-04-26T05:05:25.736Z,13.00
2019-04-26T05:08:13.893Z,12.13
2019-04-26T05:11:04.446Z,12.50
2019-04-26T05:13:45.188Z,13.00
2019-04-26T05:16:58.194Z,12.37
2019-04-26T05:20:11.867Z,11.17
2019-04-26T05:23:13.137Z,10.40
2019-04-26T05:26:19.715Z,11.03
2019-04-26T05:29:15.935Z,10.17
2019-04-26T05:32:00.818Z,9.33
2019-04-26T05:34:42.589Z,9.43
2019-04-26T05:37:53.056Z,8.97
2019-04-26T05:40:47.042Z,9.00
2019-04-26T05:43:37.976Z,9.13
2019-04-26T05:47:15.051Z,10.60
2019-04-26T05:50:42.734Z,8.90
2019-04-26T05:54:25.219Z,9.60
2019-04-26T05:57:06.708Z,9.10
2019-04-26T06:00:27.832Z,9.17
2019-04-26T06:03:18.930Z,8.93
2019-04-26T06:06:14.994Z,8.30
2019-04-26T06:09:36.521Z,8.53
2019-04-26T06:12:28.582Z,8.23
2019-04-26T06:15:36.272Z,7.00
2019-04-26T06:18:18.506Z,6.60
2019-04-26T06:20:57.325Z,7.80
2019-04-26T06:23:41.560Z,7.27
2019-04-26T06:27:13.134Z,6.50
2019-04-26T06:29:52.575Z,7.63
2019-04-26T06:33:03.197Z,6.43
2019-04-26T06:35:31.016Z,6.57
2019-04-26T06:38:57.827Z,6.00
2019-04-26T06:42:05.225Z,6.10
2019-04-26T06:45:02.758Z,7.30
2019-04-26T06:47:45.483Z,5.93
2019-04-26T06:50:26.595Z,6.60
2019-04-26T06:53:43.377Z,6.20
2019-04-26T06:57:09.590Z,6.30
2019-04-26T06:59:53.957Z,6.23
2019-04-26T07:02:35.514Z,5.97
2019-04-26T07:05:20.262Z,5.77
2019-04-26T07:08:21.884Z,6.07
2019-04-26T07:12:01.047Z,6.17
2019-04-26T07:14:59.466Z,5.73
2019-04-26T07:17:46.489Z,5.77
2019-04-26T07:20:35.830Z,5.87
2019-04-26T07:23:44.030Z,5.17
2019-04-26T07:26:50.616Z,5.23
2019-04-26T07:30:01.584Z,5.20
2019-04-26T07:32:59.848Z,4.47
2019-04-26T07:35:49.791Z,4.80
2019-04-26T07:39:13.806Z,3.83
2019-04-26T07:42:12.740Z,3.87
2019-04-26T07:45:23.116Z,3.40
2019-04-26T07:48:54.782Z,3.10
2019-04-26T07:52:08.456Z,3.03
2019-04-26T07:55:39.557Z,3.10
2019-04-26T07:59:04.101Z,3.30
2019-04-26T08:01:59.423Z,3.30
2019-04-26T08:04:35.366Z,3.70
2019-04-26T08:07:11.589Z,3.73
2019-04-26T08:09:59.198Z,3.55
2019-04-26T08:12:21.096Z,3.37
2019-04-26T08:15:14.058Z,3.17
2019-04-26T08:18:01.332Z,3.70
2019-04-26T08:20:37.919Z,3.23
2019-04-26T08:23:27.216Z,3.20
2019-04-26T08:25:43.346Z,3.47
2019-04-26T08:28:16.565Z,3.22
2019-04-26T08:30:48.353Z,3.45
2019-04-26T08:36:07.269Z,3.72
2019-04-26T08:38:39.374Z,3.60
2019-04-26T08:41:09.981Z,3.67
2019-04-26T08:44:14.794Z,3.47
2019-04-26T08:47:16.093Z,3.72
2019-04-26T08:50:17.981Z,3.45
2019-04-26T08:52:50.852Z,3.50
2019-04-26T08:55:23.268Z,3.30
2019-04-26T08:57:56.195Z,3.10
2019-04-26T09:00:40.547Z,3.25
2019-04-26T09:03:41.356Z,3.10
2019-04-26T09:06:26.947Z,2.67
2019-04-26T09:08:59.527Z,2.77
2019-04-26T09:11:33.934Z,3.17
2019-04-26T09:14:05.546Z,3.20
2019-04-26T09:16:49.767Z,2.70
2019-04-26T09:19:09.436Z,2.80
2019-04-26T09:24:40.154Z,2.80
2019-04-26T09:27:24.680Z,2.77
2019-04-26T09:33:21.476Z,2.90
2019-04-26T09:35:52.166Z,3.00
2019-04-26T09:38:21.734Z,2.33
2019-04-26T09:40:56.245Z,2.95
2019-04-26T09:43:54.906Z,2.90
2019-04-26T09:46:55.493Z,2.50
2019-04-26T09:49:29.373Z,3.02
2019-04-26T09:51:59.330Z,2.87
2019-04-26T09:54:28.879Z,2.70
2019-04-26T09:57:00.464Z,2.52
2019-04-26T10:05:55.870Z,2.80
2019-04-26T10:08:27.240Z,2.85
2019-04-26T10:10:59.534Z,2.52
2019-04-26T10:14:07.222Z,2.62
2019-04-26T10:17:02.285Z,2.62
2019-04-26T10:19:45.832Z,2.60
2019-04-26T10:25:07.759Z,2.72
2019-04-26T10:27:40.781Z,2.52
2019-04-26T10:33:41.133Z,2.52
2019-04-26T10:36:11.518Z,2.55
2019-04-26T10:45:53.448Z,2.30
2019-04-26T10:48:23.184Z,2.35
2019-04-26T11:01:07.018Z,2.58
2019-04-26T11:03:38.442Z,2.42
2019-04-26T11:06:35.095Z,2.83
2019-04-26T11:09:06.818Z,2.50
2019-04-26T11:11:37.999Z,2.40
2019-04-26T11:21:22.481Z,2.40
2019-04-26T11:23:52.240Z,2.62
2019-04-26T11:26:23.259Z,2.37
2019-04-26T11:32:02.681Z,2.02
2019-04-26T11:34:35.167Z,2.42
2019-04-26T11:37:55.161Z,2.40
2019-04-26T11:40:24.657Z,2.22
2019-04-26T11:42:54.336Z,2.08
2019-04-26T11:45:24.394Z,2.60
2019-04-26T11:47:58.102Z,2.22
2019-04-26T11:50:27.743Z,2.65
2019-04-26T11:52:57.213Z,2.47
2019-04-26T11:55:29.779Z,2.20
2019-04-26T11:57:57.786Z,2.60
2019-04-26T12:00:40.498Z,2.65
2019-04-26T12:03:10.101Z,2.27
2019-04-26T12:06:12.923Z,2.08
2019-04-26T12:08:48.280Z,3.00
2019-04-26T12:11:20.770Z,2.15
2019-04-26T12:13:49.359Z,2.08
2019-04-26T12:16:20.386Z,2.45
2019-04-26T12:18:49.961Z,2.10
2019-04-26T12:21:19.613Z,2.40
2019-04-26T12:23:51.435Z,2.25
2019-04-26T12:26:21.632Z,2.30
2019-04-26T12:28:51.240Z,2.22
2019-04-26T12:31:21.342Z,2.75
2019-04-26T12:33:52.118Z,3.58
2019-04-26T12:36:21.815Z,2.98
2019-04-26T12:38:51.618Z,2.90
2019-04-26T12:41:39.246Z,3.05
2019-04-26T12:43:54.518Z,3.02
2019-04-26T12:46:42.694Z,3.00
2019-04-26T12:49:12.976Z,3.08
2019-04-26T12:51:47.317Z,2.83
2019-04-26T12:58:45.658Z,2.90
2019-04-26T13:01:14.079Z,3.47
2019-04-26T13:07:24.028Z,4.17
2019-04-26T13:10:07.231Z,3.80
2019-04-26T13:12:56.069Z,4.05
2019-04-26T13:16:14.064Z,4.35
2019-04-26T13:18:45.193Z,4.28
2019-04-26T13:21:15.888Z,3.90
2019-04-26T13:26:44.706Z,3.73
2019-04-26T13:29:14.253Z,4.08
2019-04-26T13:31:49.814Z,3.53
2019-04-26T13:34:19.260Z,4.00
2019-04-26T13:36:48.760Z,3.87
2019-04-26T13:39:22.299Z,4.00
2019-04-26T13:42:02.075Z,4.17
2019-04-26T13:44:47.162Z,3.87
2019-04-26T13:47:54.449Z,4.43
2019-04-26T13:50:35.270Z,4.43
2019-04-26T13:53:06.005Z,3.60
2019-04-26T13:55:58.291Z,4.03
2019-04-26T14:02:41.821Z,3.80
2019-04-26T14:05:15.176Z,4.37
2019-04-26T14:27:54.369Z,3.63
2019-04-26T14:30:25.902Z,3.70
2019-04-26T14:37:15.346Z,3.80
2019-04-26T14:39:50.810Z,3.93
2019-04-26T14:42:32.753Z,4.37
2019-04-26T14:44:50.136Z,4.03
2019-04-26T14:47:47.663Z,4.33
2019-04-26T14:50:14.477Z,4.03
2019-04-26T14:52:46.605Z,4.93
2019-04-26T14:55:21.038Z,4.10
2019-04-26T14:57:51.270Z,3.97
2019-04-26T15:00:25.049Z,4.10
2019-04-26T15:03:17.306Z,3.97
2019-04-26T15:06:47.064Z,4.80
2019-04-26T15:09:20.117Z,4.63
2019-04-26T15:15:19.665Z,4.93
2019-04-26T15:17:55.166Z,5.80
2019-04-26T15:28:52.747Z,5.13
2019-04-26T15:31:24.911Z,4.57
2019-04-26T15:33:53.875Z,5.20
2019-04-26T15:44:14.811Z,5.27
2019-04-26T15:50:36.469Z,5.37
2019-04-26T15:53:12.890Z,5.03
2019-04-26T15:55:40.273Z,5.97
2019-04-26T15:58:10.388Z,5.57
2019-04-26T16:00:40.285Z,6.13
2019-04-26T16:03:09.929Z,5.77
2019-04-26T16:05:39.516Z,6.10
2019-04-26T16:08:09.135Z,6.57
2019-04-26T16:10:39.107Z,5.40
2019-04-26T16:16:42.315Z,5.67
2019-04-26T16:19:13.032Z,6.10
2019-04-26T16:21:42.770Z,5.60
2019-04-26T16:24:12.934Z,5.47
2019-04-26T16:26:50.468Z,5.53
2019-04-26T16:29:46.659Z,6.00
2019-04-26T16:32:35.880Z,6.10
2019-04-26T16:35:06.173Z,5.30
2019-04-26T16:37:36.795Z,6.07
2019-04-26T16:40:07.851Z,5.90
2019-04-26T16:42:38.127Z,5.73
2019-04-26T16:45:08.475Z,5.73
2019-04-26T16:47:44.984Z,5.70
2019-04-26T16:50:14.851Z,5.97
2019-04-26T16:52:45.032Z,6.10
2019-04-26T16:55:20.425Z,6.77
2019-04-26T16:57:54.752Z,5.60
2019-04-26T17:00:16.443Z,6.17
2019-04-26T17:02:46.542Z,6.37
2019-04-26T17:05:21.034Z,6.17
2019-04-26T17:07:47.503Z,6.03
2019-04-26T17:10:20.942Z,5.73
2019-04-26T17:12:50.631Z,6.00
2019-04-26T17:15:20.979Z,5.80
2019-04-26T17:18:04.703Z,6.00
2019-04-26T17:29:25.285Z,6.87
2019-04-26T17:31:54.686Z,6.07
2019-04-26T17:34:29.064Z,6.70
2019-04-26T17:41:00.633Z,6.17
2019-04-26T17:43:33.448Z,6.23
2019-04-26T17:56:48.915Z,6.60
2019-04-26T17:59:32.749Z,6.77
2019-04-26T18:02:00.710Z,6.73
2019-04-26T18:04:32.997Z,6.20
2019-04-26T18:07:17.955Z,6.43
2019-04-26T18:09:43.221Z,6.60
2019-04-26T18:12:06.490Z,6.93
2019-04-26T18:14:35.969Z,6.97
2019-04-26T18:17:13.245Z,7.00
2019-04-26T18:23:05.538Z,7.07
2019-04-26T18:25:35.299Z,8.50
2019-04-26T18:28:08.746Z,9.43
2019-04-26T18:30:40.414Z,7.77
2019-04-26T18:33:13.451Z,8.17
2019-04-26T18:35:45.202Z,9.23
2019-04-26T18:38:14.795Z,8.80
2019-04-26T18:40:59.922Z,10.07
2019-04-26T18:43:17.665Z,9.73
2019-04-26T18:45:49.082Z,9.47
2019-04-26T18:48:18.624Z,8.87
2019-04-26T18:50:48.334Z,8.57
2019-04-26T18:56:18.945Z,8.13
2019-04-26T18:58:51.355Z,8.87
2019-04-26T19:01:20.359Z,10.13
2019-04-26T19:03:50.558Z,9.47
2019-04-26T19:06:31.048Z,9.17
2019-04-26T19:08:52.847Z,8.87
2019-04-26T19:11:22.355Z,8.63
2019-04-26T19:14:15.075Z,9.70
2019-04-26T19:16:56.883Z,10.00
2019-04-26T19:19:47.856Z,10.53
2019-04-26T19:22:20.236Z,11.67
2019-04-26T19:24:54.131Z,10.50
2019-04-26T19:27:26.568Z,10.27
2019-04-26T19:29:54.470Z,10.13
2019-04-26T19:32:23.955Z,9.93
2019-04-26T19:34:56.374Z,10.13
2019-04-26T19:37:25.981Z,10.77
2019-04-26T19:39:55.513Z,14.43
2019-04-26T19:42:27.109Z,13.33
2019-04-26T19:45:11.954Z,13.47
2019-04-26T19:47:45.485Z,12.83
2019-04-26T19:50:21.923Z,11.67
2019-04-26T19:53:18.770Z,11.00
2019-04-26T19:56:17.393Z,10.40
2019-04-26T19:58:50.649Z,9.53
2019-04-26T20:01:20.849Z,8.77
2019-04-26T20:03:52.079Z,9.27
2019-04-26T20:06:20.981Z,9.50
2019-04-26T20:08:59.731Z,9.53
2019-04-26T20:11:29.081Z,10.33
2019-04-26T20:14:06.386Z,9.83
2019-04-26T20:16:36.419Z,9.07
2019-04-26T20:19:14.952Z,9.90
2019-04-26T20:21:45.389Z,10.00
2019-04-26T20:24:18.196Z,9.73
2019-04-26T20:26:48.648Z,8.70
2019-04-26T20:29:17.630Z,10.60
2019-04-26T20:32:12.319Z,9.47
2019-04-26T20:34:49.366Z,9.80
2019-04-26T20:37:22.789Z,9.93
2019-04-26T20:39:53.012Z,9.03
2019-04-26T20:42:22.327Z,9.33
2019-04-26T20:44:58.703Z,9.97
2019-04-26T20:47:38.390Z,8.90
2019-04-26T20:50:04.411Z,9.70
2019-04-26T20:52:33.865Z,9.30
2019-04-26T20:55:03.219Z,9.50
2019-04-26T20:57:34.376Z,9.37
2019-04-26T21:00:05.528Z,8.97
2019-04-26T21:02:34.986Z,9.43
2019-04-26T21:05:06.227Z,9.43
2019-04-26T21:07:36.328Z,8.87
2019-04-26T21:10:07.488Z,9.17
2019-04-26T21:12:36.963Z,10.03
2019-04-26T21:15:06.570Z,9.27
2019-04-26T21:17:36.197Z,9.50
2019-04-26T21:20:06.036Z,8.70
2019-04-26T21:22:35.877Z,9.23
2019-04-26T21:25:11.853Z,9.20
2019-04-26T21:27:52.371Z,8.37
2019-04-26T21:30:34.752Z,9.73
2019-04-26T21:33:13.004Z,8.70
2019-04-26T21:35:52.965Z,9.23
2019-04-26T21:38:43.858Z,8.47
2019-04-26T21:41:16.816Z,8.77
2019-04-26T21:43:46.946Z,9.30
2019-04-26T21:46:20.042Z,8.37
2019-04-26T21:48:49.187Z,8.77
2019-04-26T21:51:19.928Z,9.50
2019-04-26T21:53:49.318Z,9.27
2019-04-26T21:56:18.704Z,9.57
2019-04-26T21:58:49.407Z,9.10
2019-04-26T22:01:24.861Z,9.90
2019-04-26T22:03:58.429Z,9.27
2019-04-26T22:06:28.658Z,8.63
2019-04-26T22:09:05.129Z,9.87
2019-04-26T22:11:34.616Z,9.30
2019-04-26T22:14:20.058Z,9.60
2019-04-26T22:17:07.995Z,9.70
2019-04-26T22:19:44.253Z,9.60
2019-04-26T22:22:46.161Z,9.70
2019-04-26T22:25:16.393Z,8.67
2019-04-26T22:27:45.919Z,9.73
2019-04-26T22:30:22.729Z,9.17
2019-04-26T22:32:55.017Z,9.80
2019-04-26T22:35:23.222Z,9.80
2019-04-26T22:37:53.721Z,9.77
2019-04-26T22:40:23.434Z,10.03
2019-04-26T22:43:02.873Z,8.83
2019-04-26T22:45:50.562Z,9.23
2019-04-26T22:48:26.586Z,11.10
2019-04-26T22:50:58.526Z,9.27
2019-04-26T22:53:27.692Z,9.90
2019-04-26T22:55:57.692Z,9.97
2019-04-26T22:58:28.939Z,9.40
2019-04-26T23:01:03.553Z,9.90
2019-04-26T23:03:30.443Z,10.13
2019-04-26T23:06:03.525Z,9.60
2019-04-26T23:08:35.221Z,9.40
2019-04-26T23:11:09.108Z,9.50
2019-04-26T23:13:53.681Z,10.20
2019-04-26T23:17:04.193Z,9.27
2019-04-26T23:19:29.415Z,9.10
2019-04-26T23:21:58.944Z,8.63
2019-04-26T23:24:28.362Z,8.87
2019-04-26T23:26:58.240Z,9.07
2019-04-26T23:29:28.570Z,9.23
2019-04-26T23:31:58.214Z,9.20
2019-04-26T23:34:27.642Z,8.93
2019-04-26T23:36:57.090Z,8.87
2019-04-26T23:39:26.706Z,9.87
2019-04-26T23:41:56.382Z,8.47
2019-04-26T23:44:26.003Z,9.37
2019-04-26T23:47:01.314Z,9.33
2019-04-26T23:49:30.865Z,9.43
2019-04-26T23:52:00.435Z,8.17
2019-04-26T23:54:32.300Z,8.60
2019-04-26T23:57:02.763Z,8.63
2019-04-26T23:59:33.750Z,9.00
